Time;durP1;ratioP1;P1;durP2;ratioP2;P2;SDS_P1;SDS_P2;PMS_P1;PMS_P2;Temp;Humidity;BMP_temperature;BMP_pressure;BME280_temperature;BME280_humidity;BME280_pressure;Samples;Min_cycle;Max_cycle;Signal;HPM_P1;HPM_P2
2020/12/07 00:00:28;;;;;;;7.15;2.00;;;27.30;32.60;;;;;;5069293;28;20740;-82
2020/12/07 00:02:55;;;;;;;7.32;1.90;;;27.80;34.60;;;;;;5069096;28;20378;-82
2020/12/07 00:05:22;;;;;;;8.48;1.85;;;28.00;30.80;;;;;;5069110;28;20749;-83
2020/12/07 00:07:49;;;;;;;8.65;1.92;;;28.60;31.70;;;;;;5069036;28;20400;-83
2020/12/07 00:10:16;;;;;;;6.63;2.00;;;29.00;31.20;;;;;;5069041;28;20374;-82
2020/12/07 00:12:45;;;;;;;6.40;1.77;;;29.70;28.50;;;;;;5069451;28;20402;-82
2020/12/07 00:15:13;;;;;;;8.10;2.15;;;29.90;29.20;;;;;;5069000;28;20382;-83
2020/12/07 00:17:40;;;;;;;7.13;1.95;;;30.20;28.80;;;;;;5068845;28;20412;-83
2020/12/07 00:20:10;;;;;;;8.32;1.90;;;30.40;30.30;;;;;;5068976;28;20402;-83
2020/12/07 00:22:38;;;;;;;9.82;1.85;;;30.30;27.60;;;;;;5068943;28;20378;-83
2020/12/07 00:25:06;;;;;;;6.32;2.20;;;30.40;29.50;;;;;;5068936;28;20427;-83
2020/12/07 00:27:35;;;;;;;6.95;2.05;;;30.70;28.70;;;;;;5068837;28;20370;-82
2020/12/07 00:30:05;;;;;;;9.97;1.97;;;30.60;28.30;;;;;;5068837;28;20420;-82
2020/12/07 00:32:33;;;;;;;8.27;2.10;;;30.80;28.50;;;;;;5068775;28;20413;-83
2020/12/07 00:35:00;;;;;;;7.85;2.05;;;30.90;29.50;;;;;;5068899;28;20382;-82
2020/12/07 00:37:27;;;;;;;6.80;1.90;;;31.20;27.90;;;;;;5068816;28;20366;-83
2020/12/07 00:39:54;;;;;;;6.75;1.98;;;30.60;27.00;;;;;;5068479;28;20367;-82
2020/12/07 00:42:21;;;;;;;5.18;1.60;;;30.60;27.50;;;;;;5068672;28;20370;-83
2020/12/07 00:44:48;;;;;;;6.63;1.70;;;30.40;28.80;;;;;;5068102;28;20397;-82
2020/12/07 00:47:15;;;;;;;7.60;2.00;;;30.50;30.20;;;;;;5058095;28;20421;-82
2020/12/07 00:49:43;;;;;;;7.40;1.83;;;30.30;28.20;;;;;;5068517;28;20389;-82
2020/12/07 00:52:10;;;;;;;7.97;2.08;;;30.30;30.30;;;;;;5074003;28;20412;-82
2020/12/07 00:54:38;;;;;;;10.88;1.83;;;30.20;28.10;;;;;;5070860;28;20737;-82
2020/12/07 00:57:05;;;;;;;5.47;1.85;;;30.30;30.00;;;;;;5072048;28;20409;-82
2020/12/07 00:59:33;;;;;;;7.18;1.58;;;30.10;27.90;;;;;;5071688;28;20880;-82
2020/12/07 01:02:00;;;;;;;7.20;1.58;;;29.90;27.90;;;;;;5071726;28;20390;-82
2020/12/07 01:04:27;;;;;;;7.72;2.03;;;29.60;28.10;;;;;;5071767;28;20536;-82
2020/12/07 01:06:54;;;;;;;5.60;1.80;;;29.30;29.60;;;;;;5071801;28;20394;-81
2020/12/07 01:09:22;;;;;;;7.07;1.98;;;29.20;29.10;;;;;;5071738;28;20389;-82
2020/12/07 01:12:01;;;;;;;6.95;1.73;;;29.10;29.00;;;;;;5071995;28;20409;-82
2020/12/07 01:14:28;;;;;;;7.95;1.80;;;29.20;35.00;;;;;;5072003;28;20744;-81
2020/12/07 01:16:55;;;;;;;10.48;1.80;;;29.10;30.30;;;;;;5071978;28;20359;-82
2020/12/07 01:19:22;;;;;;;7.07;1.83;;;29.00;28.60;;;;;;5071914;28;20382;-81
2020/12/07 01:21:53;;;;;;;8.02;2.00;;;28.90;29.90;;;;;;5071994;28;20363;-82
2020/12/07 01:24:20;;;;;;;5.35;1.48;;;28.90;30.30;;;;;;5072147;28;20544;-83
2020/12/07 01:26:47;;;;;;;6.95;1.55;;;28.90;30.10;;;;;;5072596;28;20385;-83
2020/12/07 01:29:14;;;;;;;7.63;1.70;;;28.70;29.30;;;;;;5071324;28;20382;-82
2020/12/07 01:31:41;;;;;;;7.50;1.50;;;28.70;30.60;;;;;;5071541;28;20489;-82
2020/12/07 01:34:08;;;;;;;8.80;1.73;;;28.70;30.00;;;;;;5071406;28;20392;-83
2020/12/07 01:36:35;;;;;;;8.32;1.65;;;28.70;29.10;;;;;;5071524;28;20402;-84
2020/12/07 01:39:02;;;;;;;7.18;1.48;;;28.60;31.40;;;;;;5071203;28;20856;-82
2020/12/07 01:41:29;;;;;;;7.10;1.70;;;28.60;29.10;;;;;;5071325;28;20412;-82
2020/12/07 01:43:56;;;;;;;7.85;1.65;;;28.60;31.70;;;;;;5071833;28;20421;-82
2020/12/07 01:46:25;;;;;;;6.00;1.95;;;28.70;29.60;;;;;;5071391;28;20383;-81
2020/12/07 01:48:53;;;;;;;7.57;1.80;;;28.80;32.10;;;;;;5071393;28;20378;-83
2020/12/07 01:51:22;;;;;;;9.90;2.05;;;28.90;32.70;;;;;;5070574;28;20489;-82
2020/12/07 01:53:51;;;;;;;7.60;1.58;;;28.90;34.00;;;;;;5071459;28;20381;-82
2020/12/07 01:56:31;;;;;;;12.38;2.00;;;28.80;30.70;;;;;;5071316;28;20477;-82
2020/12/07 01:58:59;;;;;;;4.57;1.05;;;28.70;31.00;;;;;;5071052;28;20437;-82
2020/12/07 02:01:27;;;;;;;7.60;1.30;;;28.70;33.70;;;;;;5070477;28;21209;-83
2020/12/07 02:03:54;;;;;;;6.27;1.50;;;28.60;32.40;;;;;;5070725;28;20382;-82
2020/12/07 02:06:21;;;;;;;6.88;1.45;;;28.60;32.50;;;;;;5070362;28;20424;-83
2020/12/07 02:08:50;;;;;;;7.25;1.70;;;28.60;33.20;;;;;;5072723;28;20381;-83
2020/12/07 02:11:20;;;;;;;6.68;2.13;;;28.60;33.30;;;;;;5070875;28;20768;-85
2020/12/07 02:14:00;;;;;;;;;;;;;;;;;;;;;
2020/12/07 02:16:31;;;;;;;6.95;1.50;;;28.60;31.60;;;;;;5073250;28;20472;-83
2020/12/07 02:19:01;;;;;;;6.78;1.42;;;28.60;31.70;;;;;;5075362;28;20382;-83
2020/12/07 02:21:28;;;;;;;6.53;1.35;;;28.70;29.30;;;;;;5075256;28;20377;-83
2020/12/07 02:23:55;;;;;;;5.68;1.38;;;28.60;28.90;;;;;;5070276;28;20406;-84
2020/12/07 02:26:22;;;;;;;4.00;1.20;;;28.50;28.80;;;;;;5070040;28;20386;-84
2020/12/07 02:28:51;;;;;;;5.05;1.17;;;28.60;31.60;;;;;;5070075;28;20759;-84
2020/12/07 02:31:18;;;;;;;4.97;1.25;;;28.60;30.10;;;;;;5069854;28;20934;-84
2020/12/07 02:33:45;;;;;;;6.40;1.20;;;28.50;29.90;;;;;;5070050;28;20869;-85
2020/12/07 02:36:12;;;;;;;9.23;2.30;;;28.60;31.40;;;;;;5070122;28;20423;-83
2020/12/07 02:38:40;;;;;;;5.18;1.35;;;28.60;31.20;;;;;;5070156;28;20923;-84
2020/12/07 02:41:07;;;;;;;7.70;1.40;;;28.60;33.50;;;;;;5069079;28;20398;-86
2020/12/07 02:43:34;;;;;;;6.80;1.42;;;28.70;29.20;;;;;;5070646;28;20485;-85
2020/12/07 02:46:02;;;;;;;7.20;1.67;;;28.60;30.00;;;;;;5070355;28;20386;-83
2020/12/07 02:48:29;;;;;;;5.90;1.50;;;28.70;30.90;;;;;;5070002;28;20382;-84
2020/12/07 02:50:56;;;;;;;9.68;1.67;;;28.90;28.60;;;;;;5069879;28;20505;-84
2020/12/07 02:53:23;;;;;;;5.80;1.45;;;28.90;28.00;;;;;;5069753;28;20389;-84
2020/12/07 02:55:50;;;;;;;6.55;1.40;;;28.80;27.70;;;;;;5069359;28;20401;-85
2020/12/07 02:58:17;;;;;;;6.40;1.63;;;28.80;31.00;;;;;;5070141;28;20768;-85
2020/12/07 03:00:44;;;;;;;5.28;1.35;;;28.80;29.90;;;;;;5070154;28;20860;-84
2020/12/07 03:03:11;;;;;;;7.28;1.52;;;28.80;28.40;;;;;;5070070;28;20381;-84
2020/12/07 03:05:38;;;;;;;6.00;1.20;;;28.80;31.70;;;;;;5069410;28;20477;-85
2020/12/07 03:08:05;;;;;;;7.57;1.52;;;28.80;29.30;;;;;;5069355;28;20424;-85
2020/12/07 03:10:32;;;;;;;5.93;1.50;;;28.80;28.90;;;;;;5069156;28;20382;-84
2020/12/07 03:12:59;;;;;;;7.13;1.20;;;28.60;30.70;;;;;;5051201;28;20396;-83
2020/12/07 03:15:26;;;;;;;8.30;1.67;;;28.50;30.60;;;;;;5068993;28;20412;-82
2020/12/07 03:17:53;;;;;;;6.25;1.77;;;28.70;33.00;;;;;;5069072;28;20399;-83
2020/12/07 03:20:20;;;;;;;5.90;1.40;;;28.80;32.00;;;;;;5067797;28;20400;-83
2020/12/07 03:22:47;;;;;;;7.40;1.50;;;28.70;31.40;;;;;;5067516;28;20386;-83
2020/12/07 03:25:14;;;;;;;6.80;1.70;;;28.70;29.90;;;;;;5068503;28;20398;-84
2020/12/07 03:27:41;;;;;;;7.07;1.35;;;28.80;31.00;;;;;;5065944;28;20468;-83
2020/12/07 03:30:10;;;;;;;7.05;1.23;;;28.90;29.90;;;;;;5068607;28;20401;-84
2020/12/07 03:32:37;;;;;;;8.07;1.48;;;28.90;29.50;;;;;;5069085;28;20414;-83
2020/12/07 03:35:04;;;;;;;5.82;1.30;;;28.90;29.90;;;;;;5053988;28;20523;-82
2020/12/07 03:37:32;;;;;;;6.72;1.58;;;28.80;31.00;;;;;;5069239;28;20904;-83
2020/12/07 03:39:59;;;;;;;8.57;1.50;;;28.90;29.90;;;;;;5069021;28;20487;-82
2020/12/07 03:42:26;;;;;;;5.17;1.33;;;28.90;31.10;;;;;;5069227;28;20385;-82
2020/12/07 03:44:53;;;;;;;6.82;1.38;;;28.90;29.80;;;;;;5052873;28;20375;-82
2020/12/07 03:47:20;;;;;;;5.47;1.20;;;28.90;29.50;;;;;;5069156;28;20382;-82
2020/12/07 03:49:48;;;;;;;4.10;1.20;;;28.90;31.80;;;;;;5070506;28;20382;-85
2020/12/07 03:52:15;;;;;;;4.35;1.27;;;28.90;29.10;;;;;;5068020;28;20470;-85
2020/12/07 03:54:42;;;;;;;6.18;1.30;;;28.80;32.50;;;;;;5069491;28;20771;-85
2020/12/07 03:57:09;;;;;;;7.35;1.35;;;28.80;30.30;;;;;;5068804;28;20493;-85
2020/12/07 03:59:36;;;;;;;7.97;1.35;;;28.70;30.20;;;;;;5069226;28;20373;-86
2020/12/07 04:02:03;;;;;;;4.47;1.08;;;28.70;29.50;;;;;;5069113;28;20386;-85
2020/12/07 04:04:45;;;;;;;6.22;1.50;;;28.80;30.00;;;;;;5069126;28;20903;-85
2020/12/07 04:07:12;;;;;;;8.38;1.45;;;28.80;30.00;;;;;;5069055;28;20393;-83
2020/12/07 04:09:39;;;;;;;3.85;1.08;;;28.80;29.20;;;;;;5069196;28;20443;-82
2020/12/07 04:12:06;;;;;;;6.78;1.20;;;28.80;29.80;;;;;;5069036;28;20919;-84
2020/12/07 04:14:34;;;;;;;6.05;1.35;;;28.80;32.10;;;;;;5069526;28;20913;-83
2020/12/07 04:17:02;;;;;;;6.47;1.55;;;28.80;28.80;;;;;;5068766;28;20385;-84
2020/12/07 04:19:28;;;;;;;4.47;1.35;;;28.80;28.60;;;;;;5068817;28;20487;-84
2020/12/07 04:21:55;;;;;;;7.95;1.35;;;28.70;29.40;;;;;;5068839;28;20377;-85
2020/12/07 04:24:22;;;;;;;5.70;1.10;;;28.80;29.40;;;;;;5070821;28;20378;-84
2020/12/07 04:26:49;;;;;;;4.47;1.20;;;28.80;29.50;;;;;;5072833;28;20876;-84
2020/12/07 04:29:16;;;;;;;5.82;1.35;;;28.80;28.20;;;;;;5072569;28;20792;-84
2020/12/07 04:31:43;;;;;;;5.55;1.20;;;28.80;28.40;;;;;;5072337;28;20479;-83
2020/12/07 04:34:10;;;;;;;4.37;1.37;;;28.90;29.00;;;;;;5080953;28;20372;-84
2020/12/07 04:36:37;;;;;;;4.03;1.40;;;29.10;28.70;;;;;;5076457;28;20411;-84
2020/12/07 04:39:04;;;;;;;5.60;1.40;;;28.90;28.10;;;;;;5071984;28;20382;-83
2020/12/07 04:41:32;;;;;;;7.97;1.33;;;29.00;28.00;;;;;;5072694;28;20405;-84
2020/12/07 04:43:59;;;;;;;5.45;1.48;;;28.90;30.50;;;;;;5072966;28;21106;-84
2020/12/07 04:46:26;;;;;;;4.88;1.35;;;28.90;28.40;;;;;;5072297;28;20382;-85
2020/12/07 04:49:00;;;;;;;6.40;1.05;;;28.90;29.00;;;;;;5069861;28;20748;-85
2020/12/07 04:51:27;;;;;;;5.75;1.30;;;28.80;28.20;;;;;;5069465;28;20480;-86
2020/12/07 04:53:57;;;;;;;7.50;1.63;;;28.90;27.50;;;;;;5067866;28;20408;-85
2020/12/07 04:56:25;;;;;;;5.72;1.20;;;28.90;27.70;;;;;;5067546;28;20394;-85
2020/12/07 04:58:53;;;;;;;4.32;1.05;;;28.90;28.40;;;;;;5067384;28;20752;-85
2020/12/07 05:01:20;;;;;;;4.03;1.08;;;28.80;28.00;;;;;;5066895;28;20422;-85
2020/12/07 05:03:47;;;;;;;5.75;1.10;;;28.70;27.30;;;;;;5069230;28;20402;-85
2020/12/07 05:06:19;;;;;;;5.88;1.42;;;28.60;28.10;;;;;;5067251;28;20473;-85
2020/12/07 05:08:46;;;;;;;4.27;1.10;;;28.60;27.50;;;;;;5066796;28;20501;-84
2020/12/07 05:11:14;;;;;;;5.30;1.35;;;28.60;28.00;;;;;;5066547;28;20892;-85
2020/12/07 05:13:48;;;;;;;5.00;1.50;;;28.60;28.30;;;;;;5066671;28;20382;-84
2020/12/07 05:16:15;;;;;;;5.80;0.85;;;28.70;28.70;;;;;;5071080;28;20386;-85
2020/12/07 05:18:42;;;;;;;4.03;0.90;;;28.60;27.30;;;;;;5071588;28;20427;-85
2020/12/07 05:21:09;;;;;;;5.53;1.20;;;28.50;28.70;;;;;;5072689;28;20382;-86
2020/12/07 05:23:45;;;;;;;3.63;1.20;;;28.50;27.60;;;;;;5074001;28;20418;-84
2020/12/07 05:26:12;;;;;;;3.88;1.08;;;28.60;29.10;;;;;;5071236;28;20980;-86
2020/12/07 05:28:45;;;;;;;5.72;1.40;;;28.60;28.50;;;;;;5071907;28;20386;-83
2020/12/07 05:31:19;;;;;;;4.50;1.05;;;28.60;28.70;;;;;;5071680;28;20429;-84
2020/12/07 05:33:47;;;;;;;4.97;1.08;;;28.50;27.90;;;;;;5071367;28;20899;-85
2020/12/07 05:36:15;;;;;;;6.03;1.20;;;28.60;28.20;;;;;;5070294;28;20423;-85
2020/12/07 05:38:46;;;;;;;5.20;1.05;;;28.60;29.30;;;;;;5071396;28;20811;-84
2020/12/07 05:41:15;;;;;;;5.30;1.30;;;28.50;27.40;;;;;;5069367;28;20409;-85
2020/12/07 05:43:43;;;;;;;5.28;1.10;;;28.40;27.80;;;;;;5083504;28;20396;-84
2020/12/07 05:46:12;;;;;;;3.22;1.08;;;28.30;28.30;;;;;;5087662;28;20384;-82
2020/12/07 05:48:43;;;;;;;4.13;1.23;;;28.30;28.10;;;;;;5085405;28;20376;-82
2020/12/07 05:51:12;;;;;;;4.20;1.10;;;28.30;28.10;;;;;;5085317;28;20751;-84
2020/12/07 05:53:41;;;;;;;5.82;1.13;;;28.30;28.30;;;;;;5085534;28;20453;-84
2020/12/07 05:56:09;;;;;;;2.97;0.90;;;28.30;27.90;;;;;;5087709;28;20462;-83
2020/12/07 05:58:58;;;;;;;4.22;1.10;;;28.30;27.90;;;;;;5089795;28;20882;-84
2020/12/07 06:01:27;;;;;;;3.15;0.98;;;28.30;28.00;;;;;;5087000;28;20445;-84
2020/12/07 06:03:55;;;;;;;3.95;1.00;;;28.30;27.90;;;;;;5088331;28;20388;-85
2020/12/07 06:06:44;;;;;;;3.63;1.10;;;28.20;27.50;;;;;;5076435;28;20536;-86
2020/12/07 06:09:21;;;;;;;5.60;1.25;;;28.20;28.20;;;;;;5071053;28;20374;-83
2020/12/07 06:12:02;;;;;;;5.75;1.00;;;28.10;28.30;;;;;;5068834;28;20734;-83
2020/12/07 06:14:30;;;;;;;5.57;1.00;;;28.10;28.80;;;;;;5088060;28;20427;-82
2020/12/07 06:16:57;;;;;;;3.08;1.10;;;28.10;28.20;;;;;;5081031;28;20495;-82
2020/12/07 06:19:24;;;;;;;5.90;1.02;;;28.10;29.00;;;;;;5075145;28;20368;-82
2020/12/07 06:21:58;;;;;;;3.58;0.95;;;28.00;28.00;;;;;;5085004;28;20502;-82
2020/12/07 06:24:38;;;;;;;5.60;1.10;;;28.10;29.00;;;;;;5077371;28;20384;-83
2020/12/07 06:27:07;;;;;;;6.07;1.37;;;28.00;27.60;;;;;;5065978;28;20508;-82
2020/12/07 06:29:35;;;;;;;4.88;1.10;;;27.80;27.20;;;;;;5050654;28;20959;-85
2020/12/07 06:32:02;;;;;;;6.53;0.93;;;27.70;28.50;;;;;;5057404;28;20394;-82
2020/12/07 06:34:42;;;;;;;5.25;1.17;;;27.60;28.40;;;;;;5070513;28;20409;-83
2020/12/07 06:37:11;;;;;;;5.18;1.30;;;27.50;28.20;;;;;;5070398;28;20377;-82
2020/12/07 06:39:47;;;;;;;2.70;1.07;;;27.40;28.10;;;;;;5070356;28;20457;-83
2020/12/07 06:42:15;;;;;;;4.78;1.17;;;27.30;28.00;;;;;;5082128;28;20388;-84
2020/12/07 06:44:46;;;;;;;2.53;1.20;;;27.20;28.30;;;;;;5080375;28;20879;-83
2020/12/07 06:47:25;;;;;;;3.17;1.00;;;27.20;28.30;;;;;;5070087;28;20386;-81
2020/12/07 06:52:25;;;;;;;4.27;1.00;;;27.10;28.50;;;;;;5068284;28;21480;-83
2020/12/07 06:55:10;;;;;;;3.78;0.95;;;27.10;28.30;;;;;;5076234;28;20384;-82
2020/12/07 06:57:43;;;;;;;7.03;1.17;;;27.00;28.10;;;;;;5084855;28;20435;-84
2020/12/07 07:00:16;;;;;;;5.47;0.95;;;26.90;28.00;;;;;;5069690;28;20385;-82
2020/12/07 07:02:53;;;;;;;2.50;0.75;;;26.80;29.10;;;;;;5069874;28;20378;-82
2020/12/07 07:05:24;;;;;;;4.97;0.95;;;26.80;28.60;;;;;;5069779;28;20420;-82
2020/12/07 07:07:52;;;;;;;3.20;0.80;;;26.80;28.70;;;;;;5069874;28;20469;-82
2020/12/07 07:10:19;;;;;;;4.68;0.90;;;26.70;28.20;;;;;;5069261;28;20452;-83
2020/12/07 07:12:47;;;;;;;4.70;0.93;;;26.60;28.50;;;;;;5069758;28;20410;-83
2020/12/07 07:15:15;;;;;;;2.63;1.05;;;26.60;28.50;;;;;;5070073;28;20730;-83
2020/12/07 07:17:45;;;;;;;3.13;0.93;;;26.50;29.50;;;;;;5069439;28;20394;-82
2020/12/07 07:20:13;;;;;;;3.58;1.13;;;26.50;29.00;;;;;;5069630;28;20370;-82
2020/12/07 07:22:46;;;;;;;3.72;0.95;;;26.40;28.60;;;;;;5069538;28;20431;-83
2020/12/07 07:30:24;;;;;;;3.80;1.10;;;26.20;29.70;;;;;;5073354;28;20396;-82
2020/12/07 07:32:53;;;;;;;2.83;0.80;;;26.20;29.00;;;;;;5072389;28;20400;-81
2020/12/07 07:35:22;;;;;;;2.95;1.02;;;26.10;28.70;;;;;;5068520;28;20737;-82
2020/12/07 07:37:49;;;;;;;3.22;0.77;;;26.10;29.10;;;;;;5069223;28;20722;-82
2020/12/07 07:40:19;;;;;;;5.25;0.88;;;26.00;29.30;;;;;;5069086;28;20428;-82
2020/12/07 07:43:01;;;;;;;5.03;0.90;;;25.90;29.00;;;;;;5067157;28;20854;-82
2020/12/07 07:45:33;;;;;;;4.80;1.05;;;25.90;29.10;;;;;;5069324;28;20952;-83
2020/12/07 07:48:08;;;;;;;3.65;1.38;;;25.80;29.60;;;;;;5064582;28;20429;-82
2020/12/07 07:51:14;;;;;;;4.20;0.90;;;25.80;29.50;;;;;;5072833;28;20398;-83
2020/12/07 08:15:56;;;;;;;2.87;0.80;;;25.20;29.70;;;;;;5066873;28;20466;-83
2020/12/07 08:18:37;;;;;;;4.45;1.10;;;25.10;29.70;;;;;;5068197;28;20382;-83
2020/12/07 08:21:08;;;;;;;6.00;1.00;;;24.90;29.70;;;;;;5336366;22;20430;-84
2020/12/07 08:23:36;;;;;;;2.93;0.90;;;24.80;29.90;;;;;;5048563;28;20398;-83
2020/12/07 08:26:05;;;;;;;2.95;1.10;;;24.70;30.70;;;;;;5046249;28;20391;-84
2020/12/07 08:28:42;;;;;;;4.57;0.80;;;24.60;30.60;;;;;;5055058;28;20394;-84
2020/12/07 08:31:20;;;;;;;4.15;0.93;;;24.60;30.10;;;;;;5057378;28;20464;-84
2020/12/07 08:34:11;;;;;;;4.70;0.80;;;24.50;30.80;;;;;;5068687;28;20374;-83
2020/12/07 08:36:41;;;;;;;4.97;1.05;;;24.40;30.70;;;;;;5081030;28;20376;-82
2020/12/07 08:39:08;;;;;;;4.37;1.07;;;24.30;30.70;;;;;;5088967;28;20800;-82
2020/12/07 08:41:36;;;;;;;6.60;1.10;;;24.30;31.10;;;;;;5088853;28;20860;-82
2020/12/07 08:44:06;;;;;;;6.32;1.13;;;24.20;31.10;;;;;;5087987;28;20376;-82
2020/12/07 08:46:35;;;;;;;4.72;1.27;;;24.20;31.20;;;;;;5088040;28;20384;-82
2020/12/07 08:49:04;;;;;;;5.25;1.00;;;24.10;31.20;;;;;;5071466;28;20382;-82
2020/12/07 08:51:32;;;;;;;3.95;0.80;;;24.00;31.20;;;;;;5055399;28;20474;-83
2020/12/07 08:54:00;;;;;;;7.22;1.05;;;24.00;31.70;;;;;;5052537;28;20878;-82
2020/12/07 08:56:30;;;;;;;3.92;0.82;;;23.90;31.50;;;;;;5055382;28;20407;-85
2020/12/07 08:59:06;;;;;;;2.65;0.85;;;23.90;31.90;;;;;;5045280;28;20376;-86
2020/12/07 09:01:33;;;;;;;6.78;0.90;;;23.80;32.00;;;;;;5058398;28;20421;-84
2020/12/07 09:04:02;;;;;;;4.53;0.80;;;23.70;32.50;;;;;;5045543;28;20414;-84
2020/12/07 09:06:33;;;;;;;7.68;1.20;;;23.60;32.60;;;;;;5045385;28;20390;-84
2020/12/07 09:09:07;;;;;;;4.20;1.17;;;23.50;33.10;;;;;;5062475;28;20409;-84
2020/12/07 09:11:34;;;;;;;5.85;1.20;;;23.40;32.90;;;;;;5060198;28;20449;-84
2020/12/07 09:14:06;;;;;;;5.38;0.80;;;23.40;33.90;;;;;;5033734;28;20460;-84
2020/12/07 09:16:34;;;;;;;4.07;1.05;;;23.30;33.90;;;;;;5077381;28;21132;-84
2020/12/07 09:19:01;;;;;;;3.22;0.95;;;23.20;34.50;;;;;;5072334;28;21064;-84
2020/12/07 09:21:28;;;;;;;4.10;1.13;;;23.20;34.20;;;;;;5054006;28;20480;-82
2020/12/07 09:23:55;;;;;;;3.23;0.60;;;23.20;34.60;;;;;;5070645;28;20394;-83
2020/12/07 09:26:22;;;;;;;4.10;1.13;;;23.10;34.50;;;;;;5088443;28;20903;-88
2020/12/07 09:28:49;;;;;;;2.33;0.90;;;23.00;34.90;;;;;;5071006;28;20376;-86
2020/12/07 09:31:16;;;;;;;6.07;1.23;;;22.90;34.60;;;;;;5086996;28;20403;-86
2020/12/07 09:33:43;;;;;;;5.18;1.33;;;22.90;34.60;;;;;;5088391;28;20446;-83
2020/12/07 09:36:10;;;;;;;5.80;1.20;;;22.90;35.10;;;;;;5088298;28;20380;-81
2020/12/07 09:38:37;;;;;;;3.95;1.13;;;22.90;34.80;;;;;;5070794;28;20392;-83
2020/12/07 09:41:04;;;;;;;5.10;1.10;;;22.80;34.90;;;;;;5087613;28;20451;-83
2020/12/07 09:43:31;;;;;;;4.67;1.10;;;22.80;35.00;;;;;;5086746;28;20488;-83
2020/12/07 09:46:01;;;;;;;5.30;1.00;;;22.80;34.70;;;;;;5086753;28;20419;-83
2020/12/07 09:48:28;;;;;;;4.50;1.10;;;22.70;35.50;;;;;;5085125;28;20391;-83
2020/12/07 09:50:55;;;;;;;5.23;1.00;;;22.60;35.30;;;;;;5087754;28;20517;-83
2020/12/07 09:53:22;;;;;;;3.97;1.00;;;22.70;35.00;;;;;;5088102;28;20424;-83
2020/12/07 09:55:51;;;;;;;3.63;1.00;;;22.60;35.50;;;;;;5088044;28;20388;-83
2020/12/07 09:58:21;;;;;;;5.93;1.02;;;22.50;35.80;;;;;;5070435;28;20400;-83
2020/12/07 10:00:48;;;;;;;4.93;1.00;;;22.40;36.50;;;;;;5084318;28;20402;-85
2020/12/07 10:03:15;;;;;;;2.92;0.90;;;22.30;36.70;;;;;;5073036;28;20457;-84
2020/12/07 10:05:42;;;;;;;6.45;1.20;;;22.30;36.60;;;;;;5087200;28;20389;-85
2020/12/07 10:08:09;;;;;;;5.60;1.20;;;22.20;36.70;;;;;;5087435;28;20509;-84
2020/12/07 10:10:39;;;;;;;6.03;1.10;;;22.20;36.40;;;;;;5085951;28;20467;-85
2020/12/07 10:13:06;;;;;;;5.27;1.20;;;22.10;37.00;;;;;;5086234;28;20400;-85
2020/12/07 10:15:33;;;;;;;5.20;0.98;;;22.00;37.70;;;;;;5064754;28;20389;-85
2020/12/07 10:18:00;;;;;;;7.67;1.40;;;22.00;38.40;;;;;;5086383;28;20408;-84
2020/12/07 10:20:27;;;;;;;5.85;1.23;;;21.90;37.90;;;;;;5078550;28;20392;-84
2020/12/07 10:22:54;;;;;;;4.55;1.08;;;21.80;38.10;;;;;;5086639;28;20443;-85
2020/12/07 10:25:21;;;;;;;4.70;1.17;;;21.80;37.60;;;;;;5086428;28;20453;-85
2020/12/07 10:27:48;;;;;;;5.40;1.20;;;21.70;38.00;;;;;;5085818;28;20548;-84
2020/12/07 10:30:15;;;;;;;5.95;1.08;;;21.60;38.20;;;;;;5076345;28;20392;-84
2020/12/07 10:32:42;;;;;;;3.05;0.90;;;21.60;38.60;;;;;;5079381;28;20519;-84
2020/12/07 10:35:09;;;;;;;5.38;1.20;;;21.60;38.30;;;;;;5078657;28;20384;-85
2020/12/07 10:37:36;;;;;;;3.35;0.90;;;21.50;37.90;;;;;;5086475;28;20513;-84
2020/12/07 10:40:04;;;;;;;2.33;0.95;;;21.50;37.90;;;;;;5084647;28;20404;-84
2020/12/07 10:42:31;;;;;;;6.40;1.23;;;21.50;38.00;;;;;;5088057;28;20380;-84
2020/12/07 10:44:58;;;;;;;3.70;1.00;;;21.50;39.00;;;;;;5087476;28;20791;-85
2020/12/07 10:47:25;;;;;;;4.57;1.10;;;21.50;38.80;;;;;;5086582;28;20376;-85
2020/12/07 10:49:52;;;;;;;4.85;1.17;;;21.40;38.60;;;;;;5085289;28;20470;-84
2020/12/07 10:52:20;;;;;;;3.85;1.10;;;21.40;38.90;;;;;;5077286;28;20408;-85
2020/12/07 10:54:47;;;;;;;4.57;1.00;;;21.30;39.00;;;;;;5078199;28;20399;-85
2020/12/07 10:57:14;;;;;;;5.07;1.17;;;21.30;39.00;;;;;;5084282;28;20402;-84
2020/12/07 10:59:41;;;;;;;4.45;0.90;;;21.30;39.60;;;;;;5085616;28;20856;-84
2020/12/07 11:02:08;;;;;;;5.78;1.23;;;21.20;39.60;;;;;;5079460;28;20388;-84
2020/12/07 11:04:35;;;;;;;6.13;1.20;;;21.20;39.90;;;;;;5077788;28;20514;-84
2020/12/07 11:07:04;;;;;;;6.28;0.90;;;21.20;39.60;;;;;;5080212;28;20418;-82
2020/12/07 11:09:31;;;;;;;3.08;0.90;;;21.10;39.00;;;;;;5084653;28;20382;-83
2020/12/07 11:12:01;;;;;;;4.65;1.05;;;21.10;39.20;;;;;;5074762;28;20499;-83
2020/12/07 11:14:28;;;;;;;2.92;1.02;;;21.10;39.50;;;;;;5072739;28;20398;-83
2020/12/07 11:16:58;;;;;;;1.38;0.73;;;21.10;39.70;;;;;;5070180;28;20441;-83
2020/12/07 11:19:25;;;;;;;3.67;0.95;;;21.10;38.80;;;;;;5072313;28;20388;-84
2020/12/07 11:21:52;;;;;;;4.53;0.98;;;21.10;38.80;;;;;;5072449;28;20448;-84
2020/12/07 11:24:19;;;;;;;4.57;0.75;;;21.10;38.60;;;;;;5069244;28;20423;-83
2020/12/07 11:26:46;;;;;;;3.28;0.93;;;21.10;39.10;;;;;;5072477;28;20385;-83
2020/12/07 11:29:13;;;;;;;2.90;0.70;;;21.00;39.40;;;;;;5077163;28;20429;-83
2020/12/07 11:31:40;;;;;;;2.47;0.80;;;21.00;38.50;;;;;;5073676;28;20438;-83
2020/12/07 11:34:07;;;;;;;4.82;0.90;;;21.00;39.20;;;;;;5085626;28;20443;-83
2020/12/07 11:36:38;;;;;;;3.30;0.80;;;21.00;39.20;;;;;;5082136;28;20404;-82
2020/12/07 11:44:15;;;;;;;4.60;0.90;;;20.90;39.20;;;;;;5069194;28;20404;-83
2020/12/07 11:46:46;;;;;;;4.93;0.98;;;20.80;39.60;;;;;;5080808;28;20425;-83
2020/12/07 11:49:13;;;;;;;2.75;0.77;;;20.80;40.20;;;;;;5086251;28;20380;-83
2020/12/07 11:51:40;;;;;;;3.25;0.80;;;20.70;39.70;;;;;;5089414;28;20431;-83
2020/12/07 11:54:07;;;;;;;3.83;0.70;;;20.70;40.20;;;;;;5088033;28;20416;-83
2020/12/07 11:56:39;;;;;;;3.92;1.05;;;20.70;40.30;;;;;;5083587;28;20477;-83
2020/12/07 11:59:10;;;;;;;3.55;0.70;;;20.60;40.20;;;;;;5067032;28;21142;-84
2020/12/07 12:01:38;;;;;;;4.88;0.80;;;20.60;40.40;;;;;;5084160;28;20444;-84
2020/12/07 12:04:06;;;;;;;2.42;0.88;;;20.60;40.30;;;;;;5087330;28;20473;-84
2020/12/07 12:06:37;;;;;;;2.37;0.73;;;20.50;40.30;;;;;;5080786;28;21174;-84
2020/12/07 12:09:06;;;;;;;3.80;0.63;;;20.50;40.60;;;;;;5062889;28;20773;-83
2020/12/07 12:11:36;;;;;;;3.83;0.75;;;20.50;39.90;;;;;;5080789;28;20900;-83
2020/12/07 12:14:05;;;;;;;2.90;0.70;;;20.40;40.10;;;;;;5082250;28;20406;-85
2020/12/07 12:16:33;;;;;;;3.40;0.80;;;20.40;40.40;;;;;;5085291;28;20372;-84
2020/12/07 12:19:01;;;;;;;3.03;0.93;;;20.30;40.70;;;;;;5086409;28;20491;-85
2020/12/07 12:21:29;;;;;;;3.67;0.60;;;20.30;41.30;;;;;;5084628;28;20458;-84
2020/12/07 12:23:58;;;;;;;3.03;0.85;;;20.20;41.30;;;;;;5074370;28;20899;-84
2020/12/07 12:26:25;;;;;;;2.58;1.05;;;20.20;41.50;;;;;;5080213;28;20404;-85
2020/12/07 12:28:52;;;;;;;6.55;1.00;;;20.20;41.00;;;;;;5077439;28;20392;-84
2020/12/07 12:31:19;;;;;;;3.33;0.85;;;20.10;41.30;;;;;;5084198;28;20402;-83
2020/12/07 12:33:47;;;;;;;4.05;0.82;;;20.10;41.80;;;;;;5089172;28;20406;-83
2020/12/07 12:36:22;;;;;;;3.35;0.80;;;20.10;41.70;;;;;;5087326;28;20372;-83
2020/12/07 12:38:49;;;;;;;6.15;0.88;;;20.10;41.80;;;;;;5074373;28;20388;-83
2020/12/07 12:41:17;;;;;;;4.20;0.97;;;20.00;42.50;;;;;;5086623;28;20396;-82
2020/12/07 12:43:45;;;;;;;7.40;0.88;;;20.00;42.40;;;;;;5087327;28;20400;-83
2020/12/07 12:46:12;;;;;;;4.82;0.80;;;19.90;43.30;;;;;;5090809;28;20388;-83
2020/12/07 12:48:39;;;;;;;2.35;0.70;;;19.80;43.30;;;;;;5091291;28;20402;-83
2020/12/07 12:51:08;;;;;;;3.22;0.82;;;19.80;44.00;;;;;;5089542;28;20793;-83
2020/12/07 12:53:35;;;;;;;1.75;0.70;;;19.70;43.70;;;;;;5091502;28;21129;-83
2020/12/07 12:56:06;;;;;;;5.50;1.00;;;19.60;43.50;;;;;;5086457;28;20427;-83
2020/12/07 12:58:34;;;;;;;3.20;0.82;;;19.60;44.10;;;;;;5083018;28;20877;-83
2020/12/07 13:01:01;;;;;;;3.42;0.60;;;19.50;44.00;;;;;;5091028;28;20388;-83
2020/12/07 13:03:28;;;;;;;4.40;1.00;;;19.50;44.00;;;;;;5085062;28;20403;-84
2020/12/07 13:05:55;;;;;;;3.13;0.70;;;19.50;44.20;;;;;;5083304;28;20389;-83
2020/12/07 13:08:22;;;;;;;3.97;0.77;;;19.40;44.10;;;;;;5079890;28;20911;-84
2020/12/07 13:10:50;;;;;;;2.90;0.60;;;19.30;44.50;;;;;;5090383;28;20902;-83
2020/12/07 13:13:20;;;;;;;4.68;0.82;;;19.30;44.30;;;;;;5090372;28;20420;-83
2020/12/07 13:15:58;;;;;;;3.90;0.95;;;19.20;44.10;;;;;;5083233;28;20731;-84
2020/12/07 13:18:29;;;;;;;4.97;1.15;;;19.20;44.20;;;;;;5071961;28;20396;-83
2020/12/07 13:21:04;;;;;;;3.25;0.70;;;19.20;44.70;;;;;;5088538;28;20384;-84
2020/12/07 13:23:44;;;;;;;3.40;0.70;;;19.30;44.20;;;;;;5089259;28;20495;-83
2020/12/07 13:26:25;;;;;;;2.25;0.50;;;19.40;44.00;;;;;;5090150;28;20384;-83
2020/12/07 13:28:52;;;;;;;4.65;0.77;;;19.50;44.60;;;;;;5089122;28;20887;-84
2020/12/07 13:31:19;;;;;;;6.45;0.60;;;19.40;45.60;;;;;;5083551;28;20510;-83